Impacts METAR Board
IDs:

KDCA - Washington/National, VA, US

Updated at: 1900 UTC 02 Oct 2022
Potential Impact None Slight Moderate High
Time 02/07Z 02/08Z 02/09Z 02/10Z 02/11Z 02/12Z 02/13Z 02/14Z 02/15Z 02/16Z 02/17Z 02/18Z 02/19Z
Temp62 61 61 61 60 60 59 59 58 57 57 58 58
Dewpt60 60 59 59 59 58 57 57 55 55 54 53 55
Altim29.88 29.87 29.87 29.88 29.91 29.93 29.95 29.98 30.00 30.02 30.02 30.02 30.02
VIS4 4 7 7 2 3 3 2.5 4 1.25 7 10 1.75
CIG7 8 12 9 9 14 7 15 16 11 14 17 13
CoverOVCOVCOVCOVCOVCOVCOVCOVCOVCOVCOVCOVCOVC
FltCatIFRIFRMVFRIFRIFRMVFRIFRIFRMVFRIFRMVFRMVFRIFR
WXBRBR----+RA BR-RA BR-RA BR-RA BR-RA BRRA BR-RA---RA BR
WDir303040403030302020303602020
WSpd8 11 13 13 11 11 13 13 14 13 12 12 13
WGst-- -- -- -- -- -- -- -- 21 -- -- -- --
Raw hourly METARs
KDCA 020652Z 03008KT 4SM BR BKN007 OVC011 17/16 A2988 RMK AO2 RAB22E50 SLP117 P0001 T01670156 $
KDCA 020752Z 03011KT 4SM BR OVC008 16/16 A2987 RMK AO2 SLP115 P0001 T01610156 $
KDCA 020852Z 04013KT 7SM SCT009 BKN012 OVC026 16/15 A2987 RMK AO2 SLP114 60002 T01610150 57004 $
KDCA 020952Z 04013KT 7SM BKN009 OVC014 16/15 A2988 RMK AO2 RAB06E42 SLP117 P0001 T01610150 $
KDCA 021105Z 03011KT 2SM +RA BR BKN009 OVC015 16/15 A2991 RMK AO2 P0002 T01560150 $
KDCA 021152Z 03011KT 3SM -RA BR FEW007 BKN014 OVC018 16/14 A2993 RMK AO2 SLP133 P0007 60012 70027 T01560144 10167 20156 53016 $
KDCA 021259Z 03013KT 3SM -RA BR BKN007 OVC012 15/14 A2995 RMK AO2 P0001 T01500139 $
KDCA 021356Z 02013KT 2 1/2SM -RA BR SCT008 OVC015 15/14 A2998 RMK AO2 P0000 T01500139 $
KDCA 021457Z 02014G21KT 4SM -RA BR SCT010 OVC016 14/13 A3000 RMK AO2 P0000 T01440128 $
KDCA 021552Z 03013KT 1 1/4SM RA BR BKN011 OVC017 14/13 A3002 RMK AO2 SLP164 P0004 T01390128 $
KDCA 021652Z 36012KT 7SM -RA OVC014 14/12 A3002 RMK AO2 SLP165 P0005 T01390122 $
KDCA 021752Z 02012KT 10SM OVC017 14/12 A3002 RMK AO2 RAE13 SLP165 P0001 60012 T01440117 10156 20139 50001 $
KDCA 021852Z 02013KT 1 3/4SM -RA BR OVC013 14/13 A3002 RMK AO2 RAB17 SLP166 P0002 T01440128 $



Page loaded:  19:40 UTC  |   12:40 PM Pacific  |   01:40 PM Mountain  |   02:40 PM Central  |   03:40 PM Eastern

 

ADVISORIES

FORECASTS

FORECASTS

OBSERVATIONS

USER TOOLS

ABOUT US